Flight Track Log - Related Links

Times and Time Zones

All times are in EDT time to prevent confusion due to time zone crossing. See the N509QS flight status page for this flight to view local times or setup timezone preferences in your user account.

Time Position Orientation Groundspeed Altitude Reporting Facility
EDT Latitude Longitude Course Direction KTS MPH feet Rate Location/Type
Sat 03:56:13 PM 48.6667 -122.5333 179° South 220 253 6,000  Level Vancouver Center
Sat 03:57:13 PM 48.6000 -122.5667 198° South 260 299 8,900 1,750 Climbing Vancouver Center
Sat 03:58:13 PM 48.5333 -122.5833 189° South 280 322 9,500 1,000 Climbing Vancouver Center
Sat 03:59:00 PM 48.7778 -122.5395 185° South  Level FlightAware Approximate
Sat 03:59:13 PM 48.4500 -122.6167 195° South 290 334 10,900  Level Vancouver Center
Sat 04:00:00 PM 48.7536 -122.5428 185° South  Level FlightAware Approximate
Sat 04:00:13 PM 48.3500 -122.6667 198° South 320 368 11,000  Level Vancouver Center
Sat 04:01:13 PM 48.2667 -122.7000 195° South 340 391 11,000  Level Vancouver Center
Sat 04:02:13 PM 48.1667 -122.7500 198° South 340 391 11,000  Level Vancouver Center
Sat 04:02:45 PM 48.1433 -122.7808 221° Southwest 343 395 11,000 -171 Level Seattle Center
Sat 04:03:23 PM 48.0894 -122.8114 201° Southwest 338 389 10,800 -590 Descending Seattle Center
Sat 04:03:46 PM 48.0572 -122.8281 199° South 274 315 10,400 -787 Descending Seattle Center
Sat 04:04:24 PM 48.0150 -122.8256 178° South 291 335 10,000 -393 Descending Seattle Center
Sat 04:04:47 PM 47.9817 -122.8000 153° Southeast 302 348 10,000  Level Seattle Center
Sat 04:05:25 PM 47.9447 -122.7636 147° Southeast 294 338 10,000 -358 Level Seattle Center
Sat 04:05:54 PM 47.9072 -122.7317 150° Southeast 296 341 9,600 -1,300 Descending Seattle Center
Sat 04:06:25 PM 47.8750 -122.7006 147° Southeast 299 344 8,700 -2,262 Descending Seattle Center
Sat 04:06:55 PM 47.8353 -122.6656 149° Southeast 284 327 7,300 -2,262 Descending Seattle Center
Sat 04:07:26 PM 47.8114 -122.6397 144° Southeast 278 320 6,400 -2,300 Descending Seattle Center
Sat 04:07:55 PM 47.7892 -122.5789 119° Southeast 265 305 5,000 -2,262 Descending Seattle Center
Sat 04:08:27 PM 47.7742 -122.5367 118° Southeast 257 296 4,100 -1,636 Descending Seattle Center
Sat 04:08:50 PM 47.7600 -122.5058 124° Southeast 234 269 3,500 -1,279 Descending Seattle Center
Sat 04:09:28 PM 47.7294 -122.4711 143° Southeast 207 238 2,800 -1,180 Descending Seattle Center
Sat 04:09:51 PM 47.7128 -122.4594 155° Southeast 184 212 2,300 -600 Descending Seattle Center
Sat 04:10:28 PM 47.6853 -122.4356 150° Southeast 185 213 2,200 -90 Descending Seattle Center
Sat 04:10:58 PM 47.6697 -122.4208 147° Southeast 156 180 2,200  Level Seattle Center
Sat 04:11:29 PM 47.6483 -122.4042 152° Southeast 156 180 2,200 -98 Level Seattle Center
Sat 04:11:59 PM 47.6308 -122.3894 150° Southeast 145 167 2,100 -492 Descending Seattle Center
Sat 04:12:30 PM 47.6106 -122.3719 150° Southeast 157 181 1,700 -800 Descending Seattle Center
Sat 04:12:59 PM 47.5972 -122.3622 154° Southeast 139 160 1,300 -689 Descending Seattle Center
Sat 04:13:31 PM 47.5814 -122.3469 147° Southeast 123 142 1,000 -655 Descending Seattle Center
Sat 04:13:54 PM 47.5717 -122.3400 154° Southeast 125 144 700 -689 Descending Seattle Center
Sat 04:14:32 PM 47.5533 -122.3236 149° Southeast 117 135 300 -492 Descending Seattle Center
Sat 04:14:55 PM 47.5481 -122.3169 140° Southeast 111 128 200 -200 Descending Seattle Center
Sat 04:15:32 PM 47.5258 -122.2992 152° Southeast 117 135 100 -162 Descending Seattle Center
Sat 04:17:00 PM 47.5167 -122.3000 132° Southeast  Level FlightAware Approximate

Login

Don't have an account? Register now (free) for customized features, flight alerts, and more!